• Join FlightAware (Why Join?)
  • Login
  • US Flag 
04:28AM EDT


 

Airport Tracker/Info


-or-


 

Live Flight TrackerFlight Track Log ✈ FLG4222 ✈ 23-Sep-2013 ✈ KDTW - KBGM

Flight Track Log - Related Links

Times and Time Zones

All times are in EDT time to prevent confusion due to time zone crossing. See the FLG4222 flight status page for this flight to view local times or setup timezone preferences in your user account.

Time Position Orientation Groundspeed Altitude Reporting Facility
EDT Latitude Longitude Course Direction KTS MPH feet Rate Location/Type
10:09AM 42.2261 -83.3531 31° Northeast 148 170 1,300  Level Cleveland Center
10:09AM 42.2528 -83.3314 31° Northeast 196 226 2,500 1,920 Climbing Cleveland Center
10:10AM 42.3047 -83.2850 33° Northeast 249 287 4,600 2,040 Climbing Cleveland Center
10:10AM 42.3081 -83.2808 43° Northeast 221 254 4,900 2,580 Climbing Cleveland Center
10:12AM 42.3367 -83.2003 64° Northeast 268 308 7,700 2,400 Climbing Cleveland Center
10:13AM 42.3022 -83.1014 115° Southeast 284 327 9,900 1,080 Climbing Cleveland Center
10:14AM 42.2931 -82.9828 96° East 329 379 10,000 660 Climbing Cleveland Center
10:15AM 42.2981 -82.8597 87° East 330 380 11,300 1,440 Climbing Cleveland Center
10:16AM 42.3206 -82.7314 77° East 347 399 13,000 1,740 Climbing Cleveland Center
10:17AM 42.3472 -82.5742 77° East 357 411 15,000 1,620 Climbing Cleveland Center
10:18AM 42.3669 -82.4386 79° East 367 422 16,400 1,200 Climbing Cleveland Center
10:19AM 42.3608 -82.2986 93° East 373 429 17,500 900 Climbing Cleveland Center
10:20AM 42.3550 -82.1517 93° East 388 447 18,300 1,020 Climbing Cleveland Center
10:21AM 42.3478 -81.9828 93° East 390 449 19,700 1,140 Climbing Cleveland Center
10:22AM 42.3408 -81.8339 94° East 392 451 20,700 900 Climbing Cleveland Center
10:23AM 42.3347 -81.6814 93° East 399 459 21,600 780 Climbing Cleveland Center
10:24AM 42.3264 -81.5258 94° East 407 468 22,400 720 Climbing Cleveland Center
10:25AM 42.3200 -81.3672 93° East 415 478 23,100 600 Climbing Cleveland Center
10:26AM 42.3117 -81.2050 94° East 426 490 23,700 540 Climbing Cleveland Center
10:27AM 42.3039 -81.0397 94° East 434 499 24,300 540 Climbing Cleveland Center
10:28AM 42.2947 -80.8719 94° East 441 507 24,900 660 Climbing Cleveland Center
10:29AM 42.2847 -80.6772 94° East 442 509 25,700 660 Climbing Cleveland Center
10:30AM 42.2767 -80.5086 94° East 444 511 26,300 540 Climbing Cleveland Center
10:31AM 42.2667 -80.3394 95° East 447 514 26,900 300 Climbing Cleveland Center
10:32AM 42.2553 -80.1683 95° East 452 520 27,000  Climbing Cleveland Center
10:33AM 42.2447 -79.9956 95° East 456 525 27,000  Level Cleveland Center
10:34AM 42.2342 -79.8147 94° East 459 528 27,000  Level Cleveland Center
10:36AM 42.2224 -79.6480 95° East  Level FlightAware Approximate
10:36AM 42.2122 -79.4711 95° East 463 533 27,000  Level Cleveland Center
10:37AM 42.1983 -79.2661 95° East 458 527 25,800 -960 Descending Cleveland Center
10:38AM 42.1894 -79.0986 94° East 451 519 25,000 -420 Descending Cleveland Center
10:39AM 42.1922 -78.9339 89° East 441 507 25,000  Level Cleveland Center
10:41AM 42.1950 -78.7756 89° East 439 505 25,000  Level Cleveland Center
10:42AM 42.1981 -78.6114 89° East 440 506 25,000  Level Cleveland Center
10:43AM 42.2014 -78.4158 89° East 439 505 25,000  Level Cleveland Center
10:44AM 42.2028 -78.2522 89° East 440 506 25,000  Level Cleveland Center
10:45AM 42.2044 -78.0875 89° East 441 507 25,000 -360 Level Cleveland Center
10:46AM 42.2072 -77.9264 89° East 436 502 24,300 -1,260 Descending Cleveland Center
10:47AM 42.2081 -77.7664 90° East 433 498 22,500 -1,920 Descending Cleveland Center
10:48AM 42.2089 -77.5797 90° East 421 484 20,300 -1,980 Descending Cleveland Center
10:49AM 42.2111 -77.4275 89° East 413 475 18,500 -1,620 Descending Cleveland Center
10:50AM 42.2119 -77.2819 90° East 398 458 17,100 -720 Descending Cleveland Center
10:51AM 42.2119 -77.1364 90° East 392 451 17,100 -600 Level Cleveland Center
10:52AM 42.2125 -76.9892 90° East 397 457 16,000 -1,620 Descending New York Center
10:53AM 42.2111 -76.8547 91° East 382 440 14,100 -1,800 Descending New York Center
10:54AM 42.2106 -76.7397 90° East 356 410 12,400 -1,680 Descending New York Center
10:55AM 42.2044 -76.6106 94° East 328 377 10,800 -1,440 Descending New York Center
10:56AM 42.1725 -76.4819 108° East 300 345 9,100 -1,020 Descending Cleveland Center
10:57AM 42.1436 -76.3789 111° Southeast 296 341 8,500 -960 Descending Cleveland Center
10:58AM 42.1172 -76.3008 114° Southeast 295 339 7,500 -1,740 Descending New York Center
10:59AM 42.0886 -76.2006 111° Southeast 289 333 5,700 -1,680 Descending New York Center
11:00AM 42.0617 -76.1089 112° Southeast 272 313 4,200 -840 Descending New York Center
11:01AM 42.0381 -76.0317 112° Southeast 259 298 4,100 -120 Descending New York Center
11:02AM 41.9933 -75.9556 128° Southeast 259 298 4,000 -60 Descending New York Center
11:03AM 41.9847 -75.8656 97° East 222 255 4,000 -60 Level New York Center
11:04AM 42.0294 -75.8439 20° North 117 135 3,900 -60 Descending New York Center
11:05AM 42.0722 -75.8667 338° Northwest 131 151 3,900 -60 Level New York Center
11:06AM 42.1122 -75.9006 328° Northwest 152 175 3,800 -120 Descending New York Center